createdAt,value
2022-08-09T00:02:28.612Z,100127.73
2022-08-09T00:05:03.337Z,100130.88
2022-08-09T00:07:44.734Z,100124.71
2022-08-09T00:10:21.196Z,100126.70
2022-08-09T00:12:52.841Z,100117.60
2022-08-09T00:15:26.663Z,100120.30
2022-08-09T00:18:05.840Z,100115.73
2022-08-09T00:20:37.759Z,100118.19
2022-08-09T00:23:55.966Z,100118.26
2022-08-09T00:25:56.551Z,100117.30
2022-08-09T00:28:27.163Z,100118.89
2022-08-09T00:30:54.201Z,100118.63
2022-08-09T00:33:20.973Z,100115.42
2022-08-09T00:36:07.871Z,100119.02
2022-08-09T00:38:35.432Z,100115.89
2022-08-09T00:41:05.396Z,100117.66
2022-08-09T00:44:14.737Z,100115.79
2022-08-09T00:46:28.433Z,100113.34
2022-08-09T00:49:11.063Z,100114.62
2022-08-09T00:51:42.663Z,100113.46
2022-08-09T00:54:22.981Z,100115.84
2022-08-09T00:56:58.056Z,100116.20
2022-08-09T00:59:41.502Z,100115.07
2022-08-09T01:02:12.416Z,100112.12
2022-08-09T01:05:03.186Z,100114.30
2022-08-09T01:08:00.675Z,100120.05
2022-08-09T01:10:38.053Z,100125.20
2022-08-09T01:13:13.479Z,100129.02
2022-08-09T01:15:52.579Z,100129.43
2022-08-09T01:18:29.724Z,100126.36
2022-08-09T01:21:16.848Z,100128.48
2022-08-09T01:24:02.075Z,100126.70
2022-08-09T01:26:52.977Z,100121.84
2022-08-09T01:29:28.128Z,100119.48
2022-08-09T01:32:32.534Z,100117.60
2022-08-09T01:34:43.050Z,100118.70
2022-08-09T01:37:11.089Z,100117.83
2022-08-09T01:39:40.034Z,100115.57
2022-08-09T01:42:11.189Z,100116.77
2022-08-09T01:44:38.378Z,100115.05
2022-08-09T01:47:05.341Z,100116.48
2022-08-09T01:49:39.127Z,100116.63
2022-08-09T01:52:11.878Z,100120.10
2022-08-09T01:54:46.530Z,100118.21
2022-08-09T01:57:20.711Z,100123.27
2022-08-09T01:59:51.426Z,100123.89
2022-08-09T02:02:31.331Z,100123.22
2022-08-09T02:05:05.145Z,100121.55
2022-08-09T02:08:40.656Z,100126.72
2022-08-09T02:10:29.674Z,100121.80
2022-08-09T02:12:58.539Z,100117.34
2022-08-09T02:15:26.998Z,100117.21
2022-08-09T02:18:13.313Z,100118.10
2022-08-09T02:20:42.065Z,100119.09
2022-08-09T02:23:28.389Z,100118.59
2022-08-09T02:26:06.492Z,100118.55
2022-08-09T02:28:35.942Z,100119.60
2022-08-09T02:31:12.615Z,100120.67
2022-08-09T02:33:58.299Z,100118.32
2022-08-09T02:36:39.451Z,100120.96
2022-08-09T02:39:19.799Z,100125.40
2022-08-09T02:41:53.768Z,100133.02
2022-08-09T02:44:29.260Z,100131.16
2022-08-09T02:46:57.915Z,100132.00
2022-08-09T02:49:38.396Z,100137.02
2022-08-09T02:52:06.237Z,100141.36
2022-08-09T02:54:34.578Z,100142.14
2022-08-09T02:57:13.583Z,100135.80
2022-08-09T02:59:40.925Z,100137.29
2022-08-09T03:02:28.069Z,100140.87
2022-08-09T03:04:55.121Z,100140.43
2022-08-09T03:07:23.655Z,100138.61
2022-08-09T03:09:54.248Z,100137.44
2022-08-09T03:12:23.785Z,100128.58
2022-08-09T03:14:50.753Z,100131.71
2022-08-09T03:17:26.462Z,100130.58
2022-08-09T03:20:00.174Z,100132.23
2022-08-09T03:22:31.104Z,100128.54
2022-08-09T03:25:05.858Z,100133.64
2022-08-09T03:27:45.044Z,100130.23
2022-08-09T03:30:13.704Z,100130.61
2022-08-09T03:32:41.123Z,100135.53
2022-08-09T03:35:15.016Z,100143.85
2022-08-09T03:37:56.051Z,100145.52
2022-08-09T03:40:25.454Z,100149.34
2022-08-09T03:42:57.730Z,100151.29
2022-08-09T03:46:04.569Z,100152.88
2022-08-09T03:48:11.211Z,100152.64
2022-08-09T03:50:45.685Z,100146.51
2022-08-09T03:53:15.202Z,100145.16
2022-08-09T03:55:42.350Z,100149.71
2022-08-09T03:58:16.472Z,100143.23
2022-08-09T04:00:47.990Z,100150.13
2022-08-09T04:03:19.585Z,100153.30
2022-08-09T04:05:51.258Z,100154.16
2022-08-09T04:08:17.989Z,100143.45
2022-08-09T04:10:44.766Z,100145.36
2022-08-09T04:13:18.656Z,100148.38
2022-08-09T04:16:20.546Z,100149.27
2022-08-09T04:18:32.661Z,100149.30
2022-08-09T04:21:00.299Z,100149.96
2022-08-09T04:23:27.040Z,100144.00
2022-08-09T04:25:54.676Z,100139.60
2022-08-09T04:28:33.846Z,100133.48
2022-08-09T04:31:05.692Z,100136.88
2022-08-09T04:33:47.262Z,100136.43
2022-08-09T04:36:21.900Z,100135.68
2022-08-09T04:38:50.203Z,100139.27
2022-08-09T04:41:17.024Z,100136.30
2022-08-09T04:43:46.513Z,100139.71
2022-08-09T04:46:37.919Z,100137.10
2022-08-09T04:49:17.997Z,100130.31
2022-08-09T04:51:57.329Z,100132.85
2022-08-09T04:54:24.102Z,100135.36
2022-08-09T04:56:51.011Z,100133.27
2022-08-09T04:59:17.715Z,100138.45
2022-08-09T05:01:49.411Z,100142.42
2022-08-09T05:04:16.162Z,100143.95
2022-08-09T05:06:44.133Z,100140.60
2022-08-09T05:09:11.108Z,100140.55
2022-08-09T05:11:39.768Z,100145.35
2022-08-09T05:14:10.254Z,100147.90
2022-08-09T05:16:43.648Z,100148.70
2022-08-09T05:19:31.767Z,100147.46
2022-08-09T05:22:36.126Z,100147.55
2022-08-09T05:25:02.736Z,100149.66
2022-08-09T05:27:31.037Z,100146.83
2022-08-09T05:29:58.031Z,100150.73
2022-08-09T05:32:26.358Z,100146.42
2022-08-09T05:34:56.951Z,100151.95
2022-08-09T05:37:23.957Z,100154.27
2022-08-09T05:39:51.938Z,100154.98
2022-08-09T05:42:21.337Z,100156.15
2022-08-09T05:44:52.544Z,100152.98
2022-08-09T05:47:23.702Z,100154.70
2022-08-09T05:50:31.021Z,100159.27
2022-08-09T05:52:38.913Z,100164.62
2022-08-09T05:55:08.536Z,100164.04
2022-08-09T05:57:51.057Z,100166.12
2022-08-09T06:00:23.341Z,100163.67
2022-08-09T06:02:54.257Z,100165.77
2022-08-09T06:05:30.826Z,100158.31
2022-08-09T06:08:19.482Z,100160.68
2022-08-09T06:10:52.177Z,100159.60
2022-08-09T06:13:20.469Z,100161.70
2022-08-09T06:15:51.403Z,100163.34
2022-08-09T06:18:23.747Z,100159.64
2022-08-09T06:20:54.697Z,100158.73
2022-08-09T06:23:24.009Z,100162.64
2022-08-09T06:26:10.691Z,100166.60
2022-08-09T06:28:37.713Z,100169.08
2022-08-09T06:31:05.182Z,100168.74
2022-08-09T06:33:41.729Z,100168.55
2022-08-09T06:36:11.951Z,100171.23
2022-08-09T06:38:42.967Z,100172.45
2022-08-09T06:41:18.702Z,100172.02
2022-08-09T06:43:47.153Z,100167.75
2022-08-09T06:46:39.800Z,100163.59
2022-08-09T06:49:01.344Z,100167.56
2022-08-09T06:51:28.317Z,100171.37
2022-08-09T06:53:55.449Z,100171.75
2022-08-09T06:56:31.013Z,100172.23
2022-08-09T07:00:55.798Z,100179.81
2022-08-09T07:01:54.610Z,100179.22
2022-08-09T07:04:25.148Z,100188.19
2022-08-09T07:07:00.443Z,100188.48
2022-08-09T07:09:56.502Z,100185.14
2022-08-09T07:12:18.690Z,100192.26
2022-08-09T07:14:51.031Z,100189.67
2022-08-09T07:17:21.792Z,100191.69
2022-08-09T07:19:55.627Z,100197.11
2022-08-09T07:22:34.928Z,100195.52
2022-08-09T07:25:09.806Z,100192.50
2022-08-09T07:27:42.440Z,100193.61
2022-08-09T07:30:21.695Z,100194.39
2022-08-09T07:32:52.071Z,100196.56
2022-08-09T07:35:19.350Z,100192.09
2022-08-09T07:37:47.927Z,100194.55
2022-08-09T07:40:18.693Z,100190.48
2022-08-09T07:42:56.070Z,100188.85
2022-08-09T07:45:37.350Z,100185.97
2022-08-09T07:48:06.797Z,100183.00
2022-08-09T07:50:36.713Z,100182.36
2022-08-09T07:53:05.253Z,100185.23
2022-08-09T07:55:41.407Z,100189.04
2022-08-09T07:58:21.428Z,100193.89
2022-08-09T08:00:59.043Z,100191.08
2022-08-09T08:03:33.418Z,100190.44
2022-08-09T08:06:04.672Z,100191.52
2022-08-09T08:09:01.673Z,100196.59
2022-08-09T08:12:11.437Z,100200.50
2022-08-09T08:14:06.354Z,100198.71
2022-08-09T08:16:34.563Z,100208.26
2022-08-09T08:19:03.275Z,100214.31
2022-08-09T08:21:31.209Z,100219.19
2022-08-09T08:24:00.871Z,100217.65
2022-08-09T08:26:42.155Z,100225.00
2022-08-09T08:29:20.207Z,100222.84
2022-08-09T08:32:03.816Z,100221.92
2022-08-09T08:34:33.731Z,100225.91
2022-08-09T08:37:02.131Z,100218.15
2022-08-09T08:39:28.915Z,100217.58
2022-08-09T08:41:59.730Z,100221.12
2022-08-09T08:44:29.681Z,100212.73
2022-08-09T08:47:02.295Z,100215.05
2022-08-09T08:49:38.542Z,100206.52
2022-08-09T08:52:50.351Z,100207.10
2022-08-09T08:55:04.047Z,100207.31
2022-08-09T08:57:35.073Z,100204.69
2022-08-09T09:00:08.158Z,100198.14
2022-08-09T09:02:43.574Z,100193.45
2022-08-09T09:05:14.126Z,100195.91
2022-08-09T09:07:44.723Z,100194.48
2022-08-09T09:10:11.812Z,100186.45
2022-08-09T09:12:38.617Z,100185.95
2022-08-09T09:15:07.255Z,100185.30
2022-08-09T09:17:49.182Z,100189.48
2022-08-09T09:20:21.186Z,100196.04
2022-08-09T09:23:01.821Z,100193.34
2022-08-09T09:26:04.238Z,100190.83
2022-08-09T09:29:02.405Z,100192.73
2022-08-09T09:32:05.954Z,100187.39
2022-08-09T09:34:14.699Z,100190.60
2022-08-09T09:36:46.668Z,100187.08
2022-08-09T09:39:22.847Z,100187.39
2022-08-09T09:41:50.941Z,100187.98
2022-08-09T09:44:25.495Z,100185.84
2022-08-09T09:47:03.715Z,100183.31
2022-08-09T09:49:55.958Z,100184.20
2022-08-09T09:52:36.428Z,100185.14
2022-08-09T09:55:24.161Z,100183.66
2022-08-09T09:58:18.605Z,100184.73
2022-08-09T10:00:54.171Z,100184.14
2022-08-09T10:03:38.680Z,100183.08
2022-08-09T10:06:06.722Z,100184.14
2022-08-09T10:08:42.713Z,100187.16
2022-08-09T10:12:12.353Z,100183.88
2022-08-09T10:14:33.665Z,100182.15
2022-08-09T10:17:50.101Z,100182.33
2022-08-09T10:20:05.506Z,100177.30
2022-08-09T10:22:39.119Z,100175.89
2022-08-09T10:25:11.806Z,100177.23
2022-08-09T10:27:55.955Z,100179.37
2022-08-09T10:34:05.150Z,100174.66
2022-08-09T10:36:01.295Z,100174.38
2022-08-09T10:38:54.363Z,100172.29
2022-08-09T10:41:17.767Z,100170.55
2022-08-09T10:43:50.718Z,100164.11
2022-08-09T10:46:32.901Z,100171.52
2022-08-09T10:49:21.547Z,100170.27
2022-08-09T10:52:13.560Z,100168.39
2022-08-09T10:54:49.959Z,100166.20
2022-08-09T10:57:19.985Z,100165.11
2022-08-09T10:59:57.338Z,100161.33
2022-08-09T11:03:10.857Z,100163.36
2022-08-09T11:06:15.933Z,100160.58
2022-08-09T11:08:47.417Z,100162.16
2022-08-09T11:11:16.771Z,100160.63
2022-08-09T11:13:50.001Z,100160.05
2022-08-09T11:16:35.673Z,100157.52
2022-08-09T11:19:09.432Z,100156.15
2022-08-09T11:21:57.500Z,100152.66
2022-08-09T11:25:11.603Z,100148.63
2022-08-09T11:28:03.789Z,100148.59
2022-08-09T11:30:33.843Z,100154.61
2022-08-09T11:33:11.539Z,100157.92
2022-08-09T11:35:50.092Z,100154.67
2022-08-09T11:38:28.694Z,100153.73
2022-08-09T11:41:13.638Z,100152.49
2022-08-09T11:43:43.107Z,100155.69
2022-08-09T11:46:10.213Z,100149.27
2022-08-09T11:48:51.408Z,100149.05
2022-08-09T11:53:02.905Z,100155.30
2022-08-09T11:54:13.906Z,100148.10
2022-08-09T11:56:42.653Z,100146.95
2022-08-09T11:59:30.356Z,100149.45
2022-08-09T12:02:34.389Z,100141.59
2022-08-09T12:04:47.066Z,100139.70
2022-08-09T12:07:14.253Z,100140.33
2022-08-09T12:09:50.553Z,100142.98
2022-08-09T12:12:20.276Z,100143.63
2022-08-09T12:15:07.552Z,100140.98
2022-08-09T12:17:43.320Z,100148.61
2022-08-09T12:20:30.940Z,100144.78
2022-08-09T12:22:59.648Z,100143.28
2022-08-09T12:25:36.037Z,100138.24
2022-08-09T12:29:12.575Z,100140.36
2022-08-09T12:31:10.927Z,100138.48
2022-08-09T12:33:59.356Z,100140.61
2022-08-09T12:36:33.435Z,100141.39
2022-08-09T12:39:00.953Z,100139.94
2022-08-09T12:41:38.076Z,100141.23
2022-08-09T12:44:09.853Z,100144.78
2022-08-09T12:46:48.981Z,100136.36
2022-08-09T12:49:16.977Z,100142.75
2022-08-09T12:52:02.493Z,100147.01
2022-08-09T12:55:03.289Z,100147.05
2022-08-09T12:57:41.885Z,100151.60
2022-08-09T13:00:25.218Z,100152.78
2022-08-09T13:02:54.212Z,100152.05
2022-08-09T13:05:22.425Z,100152.84
2022-08-09T13:08:21.156Z,100154.00
2022-08-09T13:11:22.927Z,100151.27
2022-08-09T13:14:36.953Z,100152.90
2022-08-09T13:16:44.841Z,100151.94
2022-08-09T13:19:23.627Z,100150.44
2022-08-09T13:22:36.662Z,100147.20
2022-08-09T13:25:04.534Z,100144.67
2022-08-09T13:27:39.861Z,100144.90
2022-08-09T13:30:50.556Z,100149.52
2022-08-09T13:33:12.044Z,100150.39
2022-08-09T13:36:24.698Z,100152.05
2022-08-09T13:38:57.661Z,100147.75
2022-08-09T13:41:55.086Z,100149.55
2022-08-09T13:44:08.552Z,100146.10
2022-08-09T13:47:15.873Z,100140.76
2022-08-09T13:49:37.484Z,100143.02
2022-08-09T13:52:05.557Z,100138.15
2022-08-09T13:54:36.584Z,100141.70
2022-08-09T13:57:35.151Z,100142.58
2022-08-09T13:59:58.077Z,100144.88
2022-08-09T14:02:26.033Z,100144.77
2022-08-09T14:04:59.313Z,100144.63
2022-08-09T14:07:26.616Z,100144.05
2022-08-09T14:10:08.150Z,100138.86
2022-08-09T14:12:44.439Z,100137.48
2022-08-09T14:16:07.163Z,100141.55
2022-08-09T14:18:16.738Z,100145.40
2022-08-09T14:20:44.960Z,100141.05
2022-08-09T14:23:20.291Z,100140.71
2022-08-09T14:26:05.867Z,100136.10
2022-08-09T14:28:33.428Z,100135.43
2022-08-09T14:31:00.184Z,100133.45
2022-08-09T14:33:27.685Z,100130.46
2022-08-09T14:35:55.956Z,100126.27
2022-08-09T14:38:22.756Z,100125.95
2022-08-09T14:41:01.132Z,100126.37
2022-08-09T14:43:47.223Z,100119.23
2022-08-09T14:47:00.906Z,100124.12
2022-08-09T14:49:02.090Z,100128.26
2022-08-09T14:51:28.842Z,100128.75
2022-08-09T14:53:57.064Z,100128.82
2022-08-09T14:56:26.902Z,100125.84
2022-08-09T14:58:56.166Z,100126.58
2022-08-09T15:01:24.781Z,100127.01
2022-08-09T15:03:52.628Z,100129.00
2022-08-09T15:06:21.114Z,100127.83
2022-08-09T15:08:56.307Z,100125.88
2022-08-09T15:11:26.375Z,100127.48
2022-08-09T15:14:01.621Z,100126.60
2022-08-09T15:16:31.679Z,100120.30
2022-08-09T15:18:59.810Z,100116.27
2022-08-09T15:21:58.159Z,100110.79
2022-08-09T15:24:24.207Z,100108.98
2022-08-09T15:26:53.988Z,100108.06
2022-08-09T15:30:55.328Z,100103.39
2022-08-09T15:32:29.515Z,100100.39
2022-08-09T15:34:54.663Z,100096.02
2022-08-09T15:37:36.962Z,100093.83
2022-08-09T15:40:05.485Z,100092.25
2022-08-09T15:42:39.379Z,100090.77
2022-08-09T15:45:06.851Z,100086.11
2022-08-09T15:47:51.565Z,100089.21
2022-08-09T15:50:19.553Z,100082.98
2022-08-09T15:52:54.998Z,100076.95
2022-08-09T15:55:54.045Z,100075.62
2022-08-09T15:58:24.066Z,100070.58
2022-08-09T16:00:54.095Z,100070.52
2022-08-09T16:03:29.465Z,100068.20
2022-08-09T16:06:06.554Z,100061.84
2022-08-09T16:08:33.562Z,100066.89
2022-08-09T16:11:01.490Z,100069.36
2022-08-09T16:14:03.451Z,100068.90
2022-08-09T16:16:18.818Z,100067.23
2022-08-09T16:18:47.109Z,100066.54
2022-08-09T16:21:16.921Z,100069.06
2022-08-09T16:23:54.927Z,100067.93
2022-08-09T16:26:33.666Z,100066.54
2022-08-09T16:29:11.789Z,100068.45
2022-08-09T16:32:20.316Z,100068.02
2022-08-09T16:34:56.471Z,100067.11
2022-08-09T16:37:17.339Z,100067.85
2022-08-09T16:40:02.551Z,100069.99
2022-08-09T16:42:30.973Z,100076.00
2022-08-09T16:44:57.725Z,100080.20
2022-08-09T16:48:42.194Z,100084.67
2022-08-09T16:50:29.341Z,100086.39
2022-08-09T16:52:59.534Z,100085.63
2022-08-09T16:55:26.626Z,100087.62
2022-08-09T16:58:08.520Z,100097.05
2022-08-09T17:00:36.885Z,100104.16
2022-08-09T17:03:08.950Z,100104.67
2022-08-09T17:06:06.532Z,100106.75
2022-08-09T17:08:46.437Z,100112.84
2022-08-09T17:11:40.292Z,100109.81
2022-08-09T17:14:25.358Z,100112.75
2022-08-09T17:16:59.808Z,100113.08
2022-08-09T17:20:05.162Z,100114.66
2022-08-09T17:22:31.500Z,100116.69
2022-08-09T17:25:03.425Z,100119.77
2022-08-09T17:27:38.219Z,100114.77
2022-08-09T17:30:06.876Z,100117.55
2022-08-09T17:32:39.766Z,100127.90
2022-08-09T17:35:12.864Z,100131.28
2022-08-09T17:38:12.643Z,100129.13
2022-08-09T17:40:35.779Z,100126.06
2022-08-09T17:43:32.747Z,100126.06
2022-08-09T17:46:02.891Z,100130.40
2022-08-09T17:48:31.390Z,100128.25
2022-08-09T17:51:06.587Z,100132.47
2022-08-09T17:53:43.008Z,100133.99
2022-08-09T17:56:10.905Z,100133.87
2022-08-09T17:58:37.702Z,100136.09
2022-08-09T18:01:09.766Z,100139.02
2022-08-09T18:03:49.354Z,100141.56
2022-08-09T18:06:31.679Z,100140.08
2022-08-09T18:09:01.789Z,100136.65
2022-08-09T18:11:32.190Z,100134.16
2022-08-09T18:14:20.053Z,100134.86
2022-08-09T18:16:49.356Z,100134.34
2022-08-09T18:20:56.206Z,100140.14
2022-08-09T18:22:03.857Z,100138.93
2022-08-09T18:24:31.120Z,100134.11
2022-08-09T18:26:58.115Z,100131.54
2022-08-09T18:30:38.122Z,100127.99
2022-08-09T18:32:19.019Z,100120.17
2022-08-09T18:34:46.143Z,100118.67
2022-08-09T18:37:48.611Z,100118.74
2022-08-09T18:40:02.326Z,100124.52
2022-08-09T18:42:29.775Z,100128.47
2022-08-09T18:45:00.647Z,100132.99
2022-08-09T18:47:34.880Z,100137.72
2022-08-09T18:50:09.004Z,100139.34
2022-08-09T18:52:37.367Z,100147.05
2022-08-09T18:55:06.406Z,100145.98
2022-08-09T18:57:43.562Z,100155.29
2022-08-09T19:00:16.705Z,100155.45
2022-08-09T19:02:53.967Z,100149.21
2022-08-09T19:05:48.797Z,100137.20
2022-08-09T19:08:10.627Z,100131.33
2022-08-09T19:10:40.858Z,100133.28
2022-08-09T19:13:22.351Z,100136.80
2022-08-09T19:15:56.512Z,100135.95
2022-08-09T19:18:33.309Z,100132.23
2022-08-09T19:21:09.408Z,100129.86
2022-08-09T19:24:32.072Z,100129.63
2022-08-09T19:26:31.229Z,100130.75
2022-08-09T19:29:03.313Z,100130.05
2022-08-09T19:31:45.078Z,100123.13
2022-08-09T19:34:21.817Z,100118.81
2022-08-09T19:36:54.062Z,100117.54
2022-08-09T19:39:42.885Z,100118.33
2022-08-09T19:42:08.755Z,100115.82
2022-08-09T19:44:36.851Z,100112.91
2022-08-09T19:47:04.050Z,100116.85
2022-08-09T19:50:05.109Z,100120.98
2022-08-09T19:52:18.274Z,100114.90
2022-08-09T19:54:45.345Z,100116.36
2022-08-09T19:57:15.134Z,100117.27
2022-08-09T19:59:59.104Z,100115.09
2022-08-09T20:04:07.340Z,100112.02
2022-08-09T20:05:23.627Z,100103.81
2022-08-09T20:07:58.647Z,100102.19
2022-08-09T20:10:34.517Z,100104.04
2022-08-09T20:13:05.094Z,100105.65
2022-08-09T20:16:34.502Z,100106.01
2022-08-09T20:18:20.219Z,100103.21
2022-08-09T20:20:51.328Z,100100.64
2022-08-09T20:23:23.095Z,100100.53
2022-08-09T20:25:52.297Z,100094.48
2022-08-09T20:28:28.102Z,100097.20
2022-08-09T20:31:05.235Z,100102.85
2022-08-09T20:33:38.921Z,100109.66
2022-08-09T20:36:08.946Z,100111.11
2022-08-09T20:41:31.990Z,100111.21
2022-08-09T20:44:02.389Z,100107.44
2022-08-09T20:46:41.914Z,100108.00
2022-08-09T20:49:12.917Z,100104.58
2022-08-09T20:51:41.621Z,100100.05
2022-08-09T20:54:12.440Z,100098.25
2022-08-09T20:56:49.882Z,100095.75
2022-08-09T20:59:24.990Z,100097.13
2022-08-09T21:02:10.907Z,100097.75
2022-08-09T21:05:52.071Z,100099.41
2022-08-09T21:07:38.886Z,100092.80
2022-08-09T21:10:08.409Z,100087.54
2022-08-09T21:12:36.795Z,100089.14
2022-08-09T21:15:03.946Z,100084.68
2022-08-09T21:18:23.296Z,100085.13
2022-08-09T21:20:25.916Z,100080.39
2022-08-09T21:22:54.454Z,100079.90
2022-08-09T21:55:46.410Z,100091.27
2022-08-09T21:58:13.570Z,100093.05
2022-08-09T22:00:40.968Z,100095.67
2022-08-09T22:03:19.488Z,100098.34
2022-08-09T22:05:52.757Z,100095.66
2022-08-09T22:08:24.597Z,100098.20
2022-08-09T22:11:49.056Z,100096.46
2022-08-09T22:13:38.689Z,100093.05
2022-08-09T22:16:09.568Z,100090.82
2022-08-09T22:18:52.795Z,100090.30
2022-08-09T22:21:27.363Z,100088.30
2022-08-09T22:24:16.540Z,100083.30
2022-08-09T22:26:51.104Z,100079.33
2022-08-09T22:29:19.123Z,100077.55
2022-08-09T22:31:56.548Z,100074.71
2022-08-09T22:34:27.711Z,100072.61
2022-08-09T22:36:55.431Z,100070.17
2022-08-09T22:39:55.678Z,100065.76
2022-08-09T22:42:21.070Z,100064.23
2022-08-09T22:45:00.599Z,100064.64
2022-08-09T22:48:12.248Z,100064.38
2022-08-09T22:50:28.006Z,100061.00
2022-08-09T22:52:57.873Z,100062.21
2022-08-09T22:55:39.352Z,100059.60
2022-08-09T22:58:20.329Z,100066.23
2022-08-09T23:00:59.950Z,100061.52
2022-08-09T23:04:02.420Z,100057.15
2022-08-09T23:06:14.141Z,100057.16
2022-08-09T23:08:44.143Z,100056.02
2022-08-09T23:11:15.566Z,100056.25
2022-08-09T23:13:54.798Z,100054.55
2022-08-09T23:16:22.405Z,100057.46
2022-08-09T23:18:49.329Z,100059.81
2022-08-09T23:21:25.307Z,100056.55
2022-08-09T23:23:58.895Z,100050.64
2022-08-09T23:26:37.110Z,100052.94
2022-08-09T23:29:08.184Z,100050.19
2022-08-09T23:31:34.959Z,100051.92
2022-08-09T23:34:02.625Z,100051.19
2022-08-09T23:36:30.767Z,100057.77
2022-08-09T23:38:57.551Z,100058.55
2022-08-09T23:41:27.659Z,100060.41
2022-08-09T23:43:57.804Z,100057.04
2022-08-09T23:46:24.602Z,100052.02
2022-08-09T23:48:51.364Z,100051.00
2022-08-09T23:51:18.102Z,100054.65
2022-08-09T23:53:44.836Z,100057.95
2022-08-09T23:56:14.028Z,100057.29
2022-08-09T23:58:41.356Z,100054.63
